createdAt,value
2018-12-05T00:01:11.455Z,8.27
2018-12-05T00:03:38.976Z,7.70
2018-12-05T00:06:06.535Z,8.73
2018-12-05T00:08:34.108Z,5.40
2018-12-05T00:11:01.637Z,6.70
2018-12-05T00:13:29.194Z,7.93
2018-12-05T00:16:13.437Z,6.70
2018-12-05T00:18:41.041Z,8.10
2018-12-05T00:21:08.605Z,5.73
2018-12-05T00:23:36.129Z,6.83
2018-12-05T00:26:20.667Z,8.33
2018-12-05T00:29:07.861Z,6.57
2018-12-05T00:31:52.143Z,12.43
2018-12-05T00:43:51.589Z,8.30
2018-12-05T00:46:35.716Z,9.43
2018-12-05T00:49:03.412Z,8.63
2018-12-05T00:51:37.119Z,7.27
2018-12-05T00:54:21.286Z,8.73
2018-12-05T00:57:09.789Z,6.83
2018-12-05T00:59:56.409Z,9.03
2018-12-05T01:02:23.963Z,8.47
2018-12-05T01:05:10.304Z,9.63
2018-12-05T01:07:37.846Z,10.70
2018-12-05T01:10:21.956Z,11.10
2018-12-05T01:13:05.951Z,12.70
2018-12-05T01:15:50.632Z,14.00
2018-12-05T01:18:37.114Z,15.10
2018-12-05T01:21:21.341Z,10.43
2018-12-05T01:24:03.864Z,12.07
2018-12-05T01:26:50.616Z,12.57
2018-12-05T01:29:34.558Z,13.07
2018-12-05T01:32:18.425Z,11.17
2018-12-05T01:44:12.639Z,10.17
2018-12-05T01:46:59.017Z,11.13
2018-12-05T01:49:26.585Z,10.83
2018-12-05T01:52:13.196Z,11.23
2018-12-05T01:54:59.597Z,13.77
2018-12-05T01:57:27.164Z,10.47
2018-12-05T01:59:54.718Z,8.00
2018-12-05T02:02:22.235Z,8.10
2018-12-05T02:05:07.149Z,8.53
2018-12-05T02:07:52.834Z,9.33
2018-12-05T02:10:37.643Z,8.20
2018-12-05T02:13:25.776Z,13.10
2018-12-05T02:16:12.725Z,11.33
2018-12-05T02:18:40.306Z,17.13
2018-12-05T02:21:26.877Z,15.83
2018-12-05T02:24:11.665Z,16.67
2018-12-05T02:26:58.966Z,10.87
2018-12-05T02:29:33.290Z,9.27
2018-12-05T02:32:00.910Z,13.10
2018-12-05T02:34:45.671Z,11.40
2018-12-05T02:37:13.201Z,13.60
2018-12-05T02:39:40.752Z,11.17
2018-12-05T02:42:08.360Z,14.57
2018-12-05T02:44:55.327Z,13.77
2018-12-05T02:47:22.844Z,16.60
2018-12-05T02:49:50.477Z,19.70
2018-12-05T02:52:41.134Z,21.87
2018-12-05T02:55:27.821Z,15.63
2018-12-05T02:57:58.373Z,14.50
2018-12-05T03:00:25.897Z,12.77
2018-12-05T03:02:53.395Z,13.43
2018-12-05T03:05:21.006Z,14.97
2018-12-05T03:07:48.514Z,16.73
2018-12-05T03:10:16.041Z,17.50
2018-12-05T03:12:43.548Z,22.47
2018-12-05T03:15:11.097Z,22.63
2018-12-05T03:17:38.609Z,20.93
2018-12-05T03:20:06.137Z,22.83
2018-12-05T03:22:33.660Z,19.50
2018-12-05T03:25:01.193Z,20.53
2018-12-05T03:27:28.725Z,21.33
2018-12-05T03:29:56.254Z,26.90
2018-12-05T03:32:23.757Z,27.70
2018-12-05T03:34:51.356Z,33.27
2018-12-05T03:37:18.961Z,29.67
2018-12-05T03:39:46.480Z,27.30
2018-12-05T03:42:13.992Z,29.90
2018-12-05T03:44:41.534Z,22.17
2018-12-05T03:47:09.047Z,28.27
2018-12-05T03:49:36.573Z,27.70
2018-12-05T03:52:04.069Z,22.70
2018-12-05T03:54:31.597Z,25.83
2018-12-05T03:56:59.110Z,26.13
2018-12-05T03:59:26.668Z,25.57
2018-12-05T04:01:54.269Z,22.90
2018-12-05T04:04:21.805Z,21.10
2018-12-05T04:06:49.316Z,26.70
2018-12-05T04:09:16.845Z,28.00
2018-12-05T04:11:44.356Z,23.50
2018-12-05T04:14:11.877Z,27.57
2018-12-05T04:16:39.381Z,23.00
2018-12-05T04:19:06.884Z,20.23
2018-12-05T04:21:34.529Z,24.50
2018-12-05T04:24:02.027Z,23.07
2018-12-05T04:26:29.552Z,23.53
2018-12-05T04:28:57.054Z,23.10
2018-12-05T04:31:24.593Z,21.13
2018-12-05T04:33:52.088Z,22.73
2018-12-05T04:36:19.609Z,23.83
2018-12-05T04:38:47.117Z,25.40
2018-12-05T04:41:14.645Z,19.83
2018-12-05T04:43:42.158Z,25.47
2018-12-05T04:46:09.680Z,26.33
2018-12-05T04:48:37.200Z,22.00
2018-12-05T04:51:04.740Z,23.73
2018-12-05T04:53:32.241Z,21.43
2018-12-05T04:55:59.769Z,21.97
2018-12-05T04:58:27.278Z,18.10
2018-12-05T05:00:54.806Z,17.27
2018-12-05T05:03:22.384Z,17.87
2018-12-05T05:05:49.901Z,21.90
2018-12-05T05:08:17.402Z,18.43
2018-12-05T05:10:44.920Z,22.37
2018-12-05T05:13:12.479Z,23.23
2018-12-05T05:15:40.010Z,21.47
2018-12-05T05:18:07.526Z,20.63
2018-12-05T05:20:35.150Z,19.73
2018-12-05T05:23:02.657Z,23.47
2018-12-05T05:25:30.173Z,20.43
2018-12-05T05:27:57.668Z,23.67
2018-12-05T05:30:25.188Z,21.97
2018-12-05T05:32:52.903Z,18.67
2018-12-05T05:35:20.757Z,21.60
2018-12-05T05:37:48.256Z,22.87
2018-12-05T05:40:15.776Z,21.70
2018-12-05T05:42:43.271Z,20.10
2018-12-05T05:45:10.811Z,20.43
2018-12-05T05:47:38.312Z,19.50
2018-12-05T05:50:22.219Z,20.47
2018-12-05T05:52:49.795Z,21.17
2018-12-05T05:55:34.354Z,21.30
2018-12-05T05:58:01.943Z,21.57
2018-12-05T06:00:29.562Z,20.03
2018-12-05T06:02:57.139Z,27.90
2018-12-05T06:05:41.656Z,23.50
2018-12-05T06:08:26.264Z,24.20
2018-12-05T06:10:53.821Z,25.53
2018-12-05T06:13:21.346Z,23.43
2018-12-05T06:21:49.251Z,19.10
2018-12-05T06:24:33.550Z,17.03
2018-12-05T06:27:01.110Z,21.83
2018-12-05T06:29:28.688Z,15.43
2018-12-05T06:31:56.278Z,19.03
2018-12-05T06:34:43.227Z,21.77
2018-12-05T06:37:10.764Z,22.57
2018-12-05T06:39:38.338Z,24.17
2018-12-05T06:42:05.891Z,21.33
2018-12-05T06:44:52.337Z,27.17
2018-12-05T06:47:19.880Z,23.90
2018-12-05T06:49:47.254Z,26.70
2018-12-05T06:52:14.794Z,25.80
2018-12-05T06:54:42.300Z,23.10
2018-12-05T06:57:26.351Z,26.47
2018-12-05T07:00:09.026Z,25.90
2018-12-05T07:02:56.420Z,22.40
2018-12-05T07:05:42.777Z,26.93
2018-12-05T07:08:29.377Z,29.50
2018-12-05T07:11:15.814Z,32.50
2018-12-05T07:13:59.906Z,30.87
2018-12-05T07:16:46.204Z,28.50
2018-12-05T07:19:30.370Z,24.33
2018-12-05T07:22:16.681Z,30.73
2018-12-05T07:25:00.872Z,29.80
2018-12-05T07:27:47.189Z,27.53
2018-12-05T07:30:31.452Z,24.00
2018-12-05T07:33:18.025Z,26.70
2018-12-05T07:36:02.056Z,27.07
2018-12-05T07:38:46.625Z,27.87
2018-12-05T07:41:31.373Z,29.40
2018-12-05T07:44:16.046Z,26.80
2018-12-05T07:46:59.945Z,28.53
2018-12-05T07:49:46.279Z,26.27
2018-12-05T07:55:03.012Z,24.83
2018-12-05T07:57:47.061Z,27.00
2018-12-05T08:00:33.565Z,27.17
2018-12-05T08:03:17.930Z,29.97
2018-12-05T08:06:01.748Z,30.60
2018-12-05T08:08:48.317Z,27.33
2018-12-05T08:11:32.353Z,26.60
2018-12-05T08:14:17.117Z,31.60
2018-12-05T08:17:01.849Z,31.80
2018-12-05T08:19:48.380Z,30.43
2018-12-05T08:22:32.991Z,30.70
2018-12-05T08:25:17.588Z,34.90
2018-12-05T08:28:02.298Z,32.03
2018-12-05T08:30:46.782Z,31.27
2018-12-05T08:33:33.276Z,30.80
2018-12-05T08:36:17.277Z,28.43
2018-12-05T08:39:01.244Z,32.37
2018-12-05T08:41:47.620Z,24.63
2018-12-05T08:44:34.210Z,31.83
2018-12-05T08:50:20.416Z,30.60
2018-12-05T08:53:04.448Z,29.13
2018-12-05T08:55:46.388Z,27.73
2018-12-05T08:58:28.080Z,28.57
2018-12-05T09:01:14.351Z,31.47
2018-12-05T09:03:56.461Z,31.00
2018-12-05T09:06:41.214Z,34.30
2018-12-05T09:09:27.814Z,33.53
2018-12-05T09:12:01.652Z,32.90
2018-12-05T09:14:39.557Z,31.70
2018-12-05T09:17:10.023Z,29.57
2018-12-05T09:19:45.756Z,29.90
2018-12-05T09:22:17.396Z,28.37
2018-12-05T09:24:47.882Z,26.73
2018-12-05T09:27:21.936Z,28.03
2018-12-05T09:29:56.371Z,32.30
2018-12-05T09:35:35.994Z,22.50
2018-12-05T09:38:10.024Z,23.57
2018-12-05T09:43:38.353Z,24.33
2018-12-05T09:46:05.860Z,21.07
2018-12-05T09:54:40.004Z,21.37
2018-12-05T09:57:09.384Z,21.70
2018-12-05T09:59:36.896Z,22.13
2018-12-05T10:02:10.903Z,19.43
2018-12-05T10:04:42.035Z,20.60
2018-12-05T10:07:15.643Z,21.50
2018-12-05T10:10:02.526Z,21.53
2018-12-05T10:12:33.434Z,25.17
2018-12-05T10:18:06.182Z,25.13
2018-12-05T10:20:40.032Z,23.37
2018-12-05T10:26:12.287Z,21.83
2018-12-05T10:28:39.808Z,22.33
2018-12-05T10:31:07.304Z,22.80
2018-12-05T10:33:49.981Z,20.90
2018-12-05T10:36:17.494Z,17.77
2018-12-05T10:41:54.575Z,19.27
2018-12-05T10:44:22.097Z,19.77
2018-12-05T10:46:49.668Z,16.70
2018-12-05T10:49:17.184Z,16.17
2018-12-05T10:51:44.751Z,17.60
2018-12-05T10:54:12.270Z,14.80
2018-12-05T10:56:39.779Z,16.30
2018-12-05T10:59:07.298Z,16.00
2018-12-05T11:01:40.414Z,15.60
2018-12-05T11:04:13.645Z,17.07
2018-12-05T11:06:46.860Z,13.90
2018-12-05T11:09:20.068Z,15.73
2018-12-05T11:11:53.201Z,19.03
2018-12-05T11:14:26.460Z,17.07
2018-12-05T11:16:55.920Z,16.60
2018-12-05T11:25:24.615Z,13.57
2018-12-05T11:27:52.135Z,13.07
2018-12-05T11:30:19.827Z,15.87
2018-12-05T11:32:47.332Z,12.90
2018-12-05T11:35:14.854Z,13.30
2018-12-05T11:37:42.356Z,14.20
2018-12-05T11:40:09.884Z,13.07
2018-12-05T11:42:37.385Z,20.53
2018-12-05T11:45:12.440Z,13.67
2018-12-05T11:47:39.949Z,12.83
2018-12-05T11:50:07.551Z,13.20
2018-12-05T11:52:35.051Z,13.20
2018-12-05T11:55:02.628Z,15.50
2018-12-05T11:57:30.124Z,16.00
2018-12-05T11:59:57.651Z,12.73
2018-12-05T12:02:25.267Z,14.60
2018-12-05T12:04:52.800Z,13.20
2018-12-05T12:07:20.303Z,13.00
2018-12-05T12:09:47.827Z,13.87
2018-12-05T12:15:28.863Z,16.03
2018-12-05T12:17:56.428Z,13.90
2018-12-05T12:20:23.947Z,14.70
2018-12-05T12:22:51.449Z,14.03
2018-12-05T12:25:19.032Z,14.23
2018-12-05T12:27:46.535Z,13.07
2018-12-05T12:30:17.503Z,12.83
2018-12-05T12:32:44.999Z,13.83
2018-12-05T12:35:25.193Z,15.73
2018-12-05T12:37:52.691Z,16.03
2018-12-05T12:40:33.448Z,14.20
2018-12-05T12:43:00.948Z,15.07
2018-12-05T12:45:28.482Z,14.63
2018-12-05T12:47:59.851Z,13.40
2018-12-05T12:50:28.502Z,15.87
2018-12-05T12:53:03.956Z,15.03
2018-12-05T12:58:45.888Z,13.70
2018-12-05T13:01:33.118Z,14.57
2018-12-05T13:04:06.552Z,13.70
2018-12-05T13:06:40.283Z,14.73
2018-12-05T13:09:14.062Z,14.80
2018-12-05T13:14:42.548Z,11.73
2018-12-05T13:17:13.299Z,13.73
2018-12-05T13:19:46.797Z,12.53
2018-12-05T13:22:17.855Z,12.87
2018-12-05T13:24:55.219Z,12.70
2018-12-05T13:27:29.022Z,12.83
2018-12-05T13:30:02.604Z,15.93
2018-12-05T13:32:33.347Z,16.33
2018-12-05T13:38:04.356Z,17.83
2018-12-05T13:40:35.337Z,19.60
2018-12-05T13:43:09.803Z,20.83
2018-12-05T13:45:43.841Z,25.30
2018-12-05T13:48:17.372Z,21.07
2018-12-05T13:50:48.576Z,21.43
2018-12-05T13:53:22.127Z,23.27
2018-12-05T13:55:55.914Z,22.00
2018-12-05T13:58:29.778Z,27.57
2018-12-05T14:01:00.768Z,26.83
2018-12-05T14:03:31.626Z,22.83
2018-12-05T14:06:02.652Z,22.40
2018-12-05T14:08:35.952Z,22.07
2018-12-05T14:11:07.098Z,23.27
2018-12-05T14:13:40.852Z,23.27
2018-12-05T14:16:14.780Z,22.30
2018-12-05T14:18:53.067Z,22.27
2018-12-05T14:21:26.519Z,24.77
2018-12-05T14:24:00.462Z,24.57
2018-12-05T14:26:34.368Z,24.87
2018-12-05T14:29:08.051Z,22.20
2018-12-05T14:31:40.062Z,22.17
2018-12-05T14:34:11.246Z,23.23
2018-12-05T14:36:44.763Z,23.93
2018-12-05T14:39:18.668Z,21.07
2018-12-05T14:41:52.575Z,24.67
2018-12-05T14:44:26.380Z,23.93
2018-12-05T14:47:00.557Z,21.37
2018-12-05T14:49:32.695Z,23.60
2018-12-05T14:52:06.519Z,27.53
2018-12-05T14:54:40.139Z,23.40
2018-12-05T14:57:13.832Z,25.23
2018-12-05T14:59:47.674Z,27.23
2018-12-05T15:02:18.716Z,24.07
2018-12-05T15:04:52.188Z,22.80
2018-12-05T15:07:26.189Z,19.97
2018-12-05T15:09:57.392Z,25.97
2018-12-05T15:12:31.182Z,22.93
2018-12-05T15:15:05.049Z,22.20
2018-12-05T15:17:40.668Z,21.80
2018-12-05T15:20:11.999Z,19.53
2018-12-05T15:22:43.192Z,22.27
2018-12-05T15:25:16.572Z,23.93
2018-12-05T15:35:23.195Z,22.57
2018-12-05T15:40:27.615Z,27.83
2018-12-05T15:43:02.409Z,23.40
2018-12-05T15:45:36.973Z,24.17
2018-12-05T15:48:08.291Z,21.30
2018-12-05T15:50:45.757Z,22.10
2018-12-05T15:53:28.547Z,22.73
2018-12-05T15:55:59.336Z,25.30
2018-12-05T15:58:43.344Z,26.33
2018-12-05T16:01:16.657Z,23.00
2018-12-05T16:03:51.533Z,22.60
2018-12-05T16:06:35.924Z,23.30
2018-12-05T16:09:10.229Z,20.40
2018-12-05T16:11:54.881Z,20.90
2018-12-05T16:14:39.577Z,21.10
2018-12-05T16:17:17.915Z,20.53
2018-12-05T16:20:02.023Z,21.57
2018-12-05T16:22:44.792Z,24.60
2018-12-05T16:25:27.516Z,24.73
2018-12-05T16:28:11.341Z,23.50
2018-12-05T16:30:56.029Z,21.33
2018-12-05T16:33:40.019Z,21.87
2018-12-05T16:36:23.846Z,20.37
2018-12-05T16:38:51.357Z,20.73
2018-12-05T16:41:18.885Z,24.37
2018-12-05T16:43:46.399Z,28.77
2018-12-05T16:46:13.929Z,22.67
2018-12-05T16:48:41.436Z,22.73
2018-12-05T16:51:08.961Z,22.90
2018-12-05T16:53:55.549Z,17.93
2018-12-05T16:56:23.086Z,20.13
2018-12-05T16:58:50.624Z,18.83
2018-12-05T17:01:18.144Z,15.93
2018-12-05T17:03:45.648Z,19.20
2018-12-05T17:06:30.310Z,18.87
2018-12-05T17:08:57.816Z,19.73
2018-12-05T17:11:37.957Z,19.17
2018-12-05T17:14:24.607Z,15.77
2018-12-05T17:16:52.129Z,17.60
2018-12-05T17:19:36.543Z,20.33
2018-12-05T17:22:23.042Z,19.27
2018-12-05T17:25:03.338Z,15.40
2018-12-05T17:27:30.856Z,15.20
2018-12-05T17:29:58.387Z,15.00
2018-12-05T17:32:38.588Z,16.10
2018-12-05T17:35:22.896Z,16.77
2018-12-05T17:37:50.425Z,16.60
2018-12-05T17:40:17.949Z,16.07
2018-12-05T17:43:04.387Z,16.70
2018-12-05T17:45:48.482Z,16.17
2018-12-05T17:48:16.099Z,19.43
2018-12-05T17:51:03.109Z,21.53
2018-12-05T17:53:49.620Z,23.80
2018-12-05T17:56:35.033Z,19.80
2018-12-05T17:59:02.707Z,16.33
2018-12-05T18:01:46.820Z,20.53
2018-12-05T18:04:31.200Z,21.70
2018-12-05T18:06:58.733Z,20.87
2018-12-05T18:09:26.252Z,19.60
2018-12-05T18:11:53.788Z,17.07
2018-12-05T18:14:40.665Z,18.57
2018-12-05T18:17:08.199Z,20.37
2018-12-05T18:19:35.704Z,16.90
2018-12-05T18:22:03.228Z,19.83
2018-12-05T18:24:47.825Z,18.60
2018-12-05T18:27:34.245Z,21.07
2018-12-05T18:30:20.807Z,18.10
2018-12-05T18:32:48.325Z,16.60
2018-12-05T18:35:35.548Z,18.43
2018-12-05T18:38:03.118Z,18.70
2018-12-05T18:40:30.670Z,21.10
2018-12-05T18:42:58.177Z,18.80
2018-12-05T18:45:44.953Z,19.70
2018-12-05T18:48:28.944Z,18.23
2018-12-05T18:51:13.629Z,17.50
2018-12-05T18:53:41.129Z,18.27
2018-12-05T18:56:27.654Z,19.03
2018-12-05T18:59:12.617Z,18.37
2018-12-05T19:01:40.342Z,17.17
2018-12-05T19:04:24.880Z,15.10
2018-12-05T19:07:08.876Z,16.07
2018-12-05T19:09:36.503Z,21.10
2018-12-05T19:12:04.105Z,19.57
2018-12-05T19:14:51.699Z,23.47
2018-12-05T19:17:35.893Z,28.77
2018-12-05T19:20:03.732Z,18.47
2018-12-05T19:22:50.522Z,18.07
2018-12-05T19:25:30.593Z,15.70
2018-12-05T19:27:58.271Z,17.00
2018-12-05T19:30:27.262Z,17.43
2018-12-05T19:32:54.917Z,17.97
2018-12-05T19:35:41.980Z,19.07
2018-12-05T19:38:09.488Z,18.20
2018-12-05T19:40:53.987Z,18.40
2018-12-05T19:43:21.630Z,17.90
2018-12-05T19:46:05.833Z,20.73
2018-12-05T19:48:52.348Z,18.73
2018-12-05T19:51:20.039Z,16.77
2018-12-05T19:54:06.976Z,20.97
2018-12-05T19:56:34.629Z,19.00
2018-12-05T19:59:25.584Z,16.77
2018-12-05T20:01:53.238Z,18.23
2018-12-05T20:04:31.035Z,19.07
2018-12-05T20:06:58.569Z,19.90
2018-12-05T20:09:26.072Z,21.63
2018-12-05T20:11:53.604Z,23.43
2018-12-05T20:14:40.108Z,19.40
2018-12-05T20:17:07.629Z,19.57
2018-12-05T20:19:35.128Z,18.57
2018-12-05T20:22:02.660Z,18.73
2018-12-05T20:24:30.168Z,17.23
2018-12-05T20:26:57.813Z,18.27
2018-12-05T20:29:25.317Z,20.40
2018-12-05T20:31:52.921Z,17.37
2018-12-05T20:34:20.418Z,20.20
2018-12-05T20:36:47.936Z,20.67
2018-12-05T20:39:15.440Z,18.53
2018-12-05T20:41:42.971Z,20.63
2018-12-05T20:44:10.475Z,22.50
2018-12-05T20:46:38.002Z,17.03
2018-12-05T20:49:05.564Z,16.70
2018-12-05T20:51:33.152Z,18.57
2018-12-05T20:54:00.670Z,23.17
2018-12-05T20:56:28.204Z,20.90
2018-12-05T20:58:55.710Z,23.43
2018-12-05T21:01:23.385Z,22.37
2018-12-05T21:03:50.930Z,19.13
2018-12-05T21:06:18.433Z,21.17
2018-12-05T21:08:45.957Z,22.00
2018-12-05T21:11:13.568Z,22.23
2018-12-05T21:13:42.728Z,18.07
2018-12-05T21:16:10.285Z,19.57
2018-12-05T21:18:37.804Z,19.37
2018-12-05T21:21:05.317Z,19.43
2018-12-05T21:23:32.850Z,21.30
2018-12-05T21:26:00.456Z,22.20
2018-12-05T21:28:27.973Z,19.53
2018-12-05T21:30:55.476Z,22.13
2018-12-05T21:33:23.016Z,20.10
2018-12-05T21:35:50.515Z,22.03
2018-12-05T21:38:18.040Z,22.13
2018-12-05T21:40:45.556Z,26.73
2018-12-05T21:43:13.089Z,25.87
2018-12-05T21:45:40.601Z,25.47
2018-12-05T21:48:08.140Z,22.17
2018-12-05T21:50:35.645Z,24.23
2018-12-05T21:53:03.252Z,26.30
2018-12-05T21:55:30.759Z,22.13
2018-12-05T21:57:58.276Z,23.37
2018-12-05T22:00:25.795Z,20.23
2018-12-05T22:02:53.353Z,18.37
2018-12-05T22:05:20.864Z,20.87
2018-12-05T22:07:48.387Z,22.43
2018-12-05T22:10:15.883Z,23.00
2018-12-05T22:12:43.400Z,19.97
2018-12-05T22:15:10.896Z,22.47
2018-12-05T22:17:38.425Z,19.90
2018-12-05T22:20:06.115Z,19.73
2018-12-05T22:22:33.648Z,18.93
2018-12-05T22:25:01.153Z,21.43
2018-12-05T22:27:28.684Z,20.17
2018-12-05T22:29:56.193Z,17.30
2018-12-05T22:32:23.729Z,20.70
2018-12-05T22:34:51.242Z,24.23
2018-12-05T22:37:18.772Z,21.93
2018-12-05T22:39:46.272Z,19.97
2018-12-05T22:42:13.798Z,20.87
2018-12-05T22:44:41.308Z,25.20
2018-12-05T22:47:08.833Z,22.03
2018-12-05T22:49:36.353Z,21.27
2018-12-05T22:52:03.861Z,20.70
2018-12-05T22:54:31.385Z,18.10
2018-12-05T22:57:11.641Z,22.73
2018-12-05T22:59:39.194Z,23.03
2018-12-05T23:02:06.697Z,21.20
2018-12-05T23:04:34.285Z,23.07
2018-12-05T23:07:01.787Z,21.50
2018-12-05T23:09:29.320Z,21.87
2018-12-05T23:11:56.843Z,21.43
2018-12-05T23:14:24.464Z,21.20
2018-12-05T23:16:52.038Z,21.43
2018-12-05T23:19:19.736Z,21.73
2018-12-05T23:21:47.245Z,21.53
2018-12-05T23:24:14.770Z,21.40
2018-12-05T23:26:42.281Z,19.73
2018-12-05T23:29:09.839Z,22.53
2018-12-05T23:31:37.351Z,23.30
2018-12-05T23:34:04.879Z,22.70
2018-12-05T23:36:32.448Z,17.43
2018-12-05T23:39:00.008Z,24.43
2018-12-05T23:41:27.518Z,23.40
2018-12-05T23:44:11.296Z,31.93
2018-12-05T23:46:38.812Z,30.00
2018-12-05T23:49:06.351Z,29.27
2018-12-05T23:51:33.864Z,30.43
2018-12-05T23:54:01.410Z,27.23
2018-12-05T23:56:28.932Z,26.20
2018-12-05T23:58:56.480Z,24.73
